sensor_id;sensor_type;location;lat;lon;timestamp;P1;durP1;ratioP1;P2;durP2;ratioP2
42866;SDS011;39461;40.948;73.006;2023-06-22T00:00:24;16.25;;;5.05;;
42866;SDS011;39461;40.948;73.006;2023-06-22T00:02:59;16.50;;;5.65;;
42866;SDS011;39461;40.948;73.006;2023-06-22T00:05:34;14.77;;;5.00;;
42866;SDS011;39461;40.948;73.006;2023-06-22T00:08:09;13.73;;;5.15;;
42866;SDS011;39461;40.948;73.006;2023-06-22T00:10:44;14.07;;;4.82;;
42866;SDS011;39461;40.948;73.006;2023-06-22T00:13:19;18.58;;;5.82;;
42866;SDS011;39461;40.948;73.006;2023-06-22T00:15:53;24.00;;;5.60;;
42866;SDS011;39461;40.948;73.006;2023-06-22T00:18:25;10.82;;;4.60;;
42866;SDS011;39461;40.948;73.006;2023-06-22T00:21:00;12.85;;;4.38;;
42866;SDS011;39461;40.948;73.006;2023-06-22T00:23:33;18.23;;;5.15;;
42866;SDS011;39461;40.948;73.006;2023-06-22T00:26:06;14.68;;;5.78;;
42866;SDS011;39461;40.948;73.006;2023-06-22T00:28:42;16.33;;;5.60;;
42866;SDS011;39461;40.948;73.006;2023-06-22T00:31:15;15.10;;;5.50;;
42866;SDS011;39461;40.948;73.006;2023-06-22T00:33:44;12.02;;;4.97;;
42866;SDS011;39461;40.948;73.006;2023-06-22T00:36:18;11.65;;;5.05;;
42866;SDS011;39461;40.948;73.006;2023-06-22T00:38:53;13.10;;;4.90;;
42866;SDS011;39461;40.948;73.006;2023-06-22T00:41:28;13.38;;;5.00;;
42866;SDS011;39461;40.948;73.006;2023-06-22T00:44:04;15.25;;;5.20;;
42866;SDS011;39461;40.948;73.006;2023-06-22T00:46:38;14.38;;;5.00;;
42866;SDS011;39461;40.948;73.006;2023-06-22T00:49:07;12.57;;;5.85;;
42866;SDS011;39461;40.948;73.006;2023-06-22T00:51:40;15.55;;;5.63;;
42866;SDS011;39461;40.948;73.006;2023-06-22T00:54:17;20.52;;;5.82;;
42866;SDS011;39461;40.948;73.006;2023-06-22T00:56:56;20.45;;;6.05;;
42866;SDS011;39461;40.948;73.006;2023-06-22T00:59:30;10.32;;;4.70;;
42866;SDS011;39461;40.948;73.006;2023-06-22T01:02:04;19.67;;;5.30;;
42866;SDS011;39461;40.948;73.006;2023-06-22T01:04:45;12.77;;;5.25;;
42866;SDS011;39461;40.948;73.006;2023-06-22T01:07:25;14.32;;;5.13;;
42866;SDS011;39461;40.948;73.006;2023-06-22T01:12:48;19.90;;;7.15;;
42866;SDS011;39461;40.948;73.006;2023-06-22T01:15:28;18.92;;;5.88;;
42866;SDS011;39461;40.948;73.006;2023-06-22T01:18:06;16.67;;;5.15;;
42866;SDS011;39461;40.948;73.006;2023-06-22T01:20:41;12.35;;;4.53;;
42866;SDS011;39461;40.948;73.006;2023-06-22T01:23:26;11.10;;;5.18;;
42866;SDS011;39461;40.948;73.006;2023-06-22T01:28:42;18.33;;;6.22;;
42866;SDS011;39461;40.948;73.006;2023-06-22T01:31:18;16.65;;;5.20;;
42866;SDS011;39461;40.948;73.006;2023-06-22T01:33:47;13.05;;;6.07;;
42866;SDS011;39461;40.948;73.006;2023-06-22T01:36:23;12.43;;;5.57;;
42866;SDS011;39461;40.948;73.006;2023-06-22T01:38:59;15.52;;;7.03;;
42866;SDS011;39461;40.948;73.006;2023-06-22T01:44:32;15.27;;;5.95;;
42866;SDS011;39461;40.948;73.006;2023-06-22T01:47:08;14.93;;;5.97;;
42866;SDS011;39461;40.948;73.006;2023-06-22T01:49:43;18.90;;;5.97;;
42866;SDS011;39461;40.948;73.006;2023-06-22T01:52:12;13.52;;;5.70;;
42866;SDS011;39461;40.948;73.006;2023-06-22T01:54:45;17.10;;;5.88;;
42866;SDS011;39461;40.948;73.006;2023-06-22T01:57:12;17.92;;;6.25;;
42866;SDS011;39461;40.948;73.006;2023-06-22T02:00:03;10.98;;;5.38;;
42866;SDS011;39461;40.948;73.006;2023-06-22T02:02:39;15.38;;;5.30;;
42866;SDS011;39461;40.948;73.006;2023-06-22T02:05:19;18.17;;;6.30;;
42866;SDS011;39461;40.948;73.006;2023-06-22T02:07:52;18.50;;;6.38;;
42866;SDS011;39461;40.948;73.006;2023-06-22T02:10:34;13.55;;;5.07;;
42866;SDS011;39461;40.948;73.006;2023-06-22T02:13:13;17.60;;;6.22;;
42866;SDS011;39461;40.948;73.006;2023-06-22T02:15:47;19.52;;;6.70;;
42866;SDS011;39461;40.948;73.006;2023-06-22T02:18:21;24.52;;;8.00;;
42866;SDS011;39461;40.948;73.006;2023-06-22T02:20:54;19.00;;;8.43;;
42866;SDS011;39461;40.948;73.006;2023-06-22T02:23:27;21.25;;;7.57;;
42866;SDS011;39461;40.948;73.006;2023-06-22T02:26:02;20.15;;;8.30;;
42866;SDS011;39461;40.948;73.006;2023-06-22T02:28:36;14.45;;;5.68;;
42866;SDS011;39461;40.948;73.006;2023-06-22T02:31:09;14.43;;;6.05;;
42866;SDS011;39461;40.948;73.006;2023-06-22T02:33:40;13.45;;;5.30;;
42866;SDS011;39461;40.948;73.006;2023-06-22T02:36:15;17.52;;;5.65;;
42866;SDS011;39461;40.948;73.006;2023-06-22T02:38:54;15.80;;;6.05;;
42866;SDS011;39461;40.948;73.006;2023-06-22T02:41:31;12.23;;;5.43;;
42866;SDS011;39461;40.948;73.006;2023-06-22T02:44:05;14.25;;;5.18;;
42866;SDS011;39461;40.948;73.006;2023-06-22T02:46:37;16.33;;;6.25;;
42866;SDS011;39461;40.948;73.006;2023-06-22T02:49:04;18.05;;;5.88;;
42866;SDS011;39461;40.948;73.006;2023-06-22T02:51:38;14.10;;;4.97;;
42866;SDS011;39461;40.948;73.006;2023-06-22T02:54:13;18.65;;;4.80;;
42866;SDS011;39461;40.948;73.006;2023-06-22T02:56:49;13.27;;;4.53;;
42866;SDS011;39461;40.948;73.006;2023-06-22T03:00:11;10.70;;;4.28;;
42866;SDS011;39461;40.948;73.006;2023-06-22T03:02:20;13.05;;;5.32;;
42866;SDS011;39461;40.948;73.006;2023-06-22T03:04:49;50.53;;;37.03;;
42866;SDS011;39461;40.948;73.006;2023-06-22T03:07:25;11.65;;;6.65;;
42866;SDS011;39461;40.948;73.006;2023-06-22T03:09:59;13.75;;;5.75;;
42866;SDS011;39461;40.948;73.006;2023-06-22T03:12:32;11.63;;;4.53;;
42866;SDS011;39461;40.948;73.006;2023-06-22T03:15:09;12.27;;;4.97;;
42866;SDS011;39461;40.948;73.006;2023-06-22T03:17:43;13.68;;;4.13;;
42866;SDS011;39461;40.948;73.006;2023-06-22T03:20:23;42.47;;;34.03;;
42866;SDS011;39461;40.948;73.006;2023-06-22T03:22:58;12.15;;;4.68;;
42866;SDS011;39461;40.948;73.006;2023-06-22T03:25:32;18.42;;;12.27;;
42866;SDS011;39461;40.948;73.006;2023-06-22T03:28:05;14.57;;;7.97;;
42866;SDS011;39461;40.948;73.006;2023-06-22T03:30:40;71.75;;;49.35;;
42866;SDS011;39461;40.948;73.006;2023-06-22T03:33:15;43.50;;;34.35;;
42866;SDS011;39461;40.948;73.006;2023-06-22T03:35:55;25.75;;;15.77;;
42866;SDS011;39461;40.948;73.006;2023-06-22T03:38:30;19.77;;;6.78;;
42866;SDS011;39461;40.948;73.006;2023-06-22T03:41:03;15.75;;;5.70;;
42866;SDS011;39461;40.948;73.006;2023-06-22T03:43:38;17.10;;;6.60;;
42866;SDS011;39461;40.948;73.006;2023-06-22T03:46:11;22.27;;;7.70;;
42866;SDS011;39461;40.948;73.006;2023-06-22T03:48:44;20.80;;;9.07;;
42866;SDS011;39461;40.948;73.006;2023-06-22T03:51:18;27.77;;;10.10;;
42866;SDS011;39461;40.948;73.006;2023-06-22T03:53:51;17.15;;;7.47;;
42866;SDS011;39461;40.948;73.006;2023-06-22T03:56:28;19.98;;;6.75;;
42866;SDS011;39461;40.948;73.006;2023-06-22T03:59:01;12.15;;;5.45;;
42866;SDS011;39461;40.948;73.006;2023-06-22T04:01:36;18.00;;;4.93;;
42866;SDS011;39461;40.948;73.006;2023-06-22T04:04:09;14.82;;;4.95;;
42866;SDS011;39461;40.948;73.006;2023-06-22T04:06:43;17.85;;;4.53;;
42866;SDS011;39461;40.948;73.006;2023-06-22T04:09:22;10.48;;;4.18;;
42866;SDS011;39461;40.948;73.006;2023-06-22T04:11:55;13.68;;;3.78;;
42866;SDS011;39461;40.948;73.006;2023-06-22T04:14:30;8.88;;;3.38;;
42866;SDS011;39461;40.948;73.006;2023-06-22T04:17:05;6.38;;;2.90;;
42866;SDS011;39461;40.948;73.006;2023-06-22T04:19:40;15.95;;;4.05;;
42866;SDS011;39461;40.948;73.006;2023-06-22T04:22:15;9.93;;;3.15;;
42866;SDS011;39461;40.948;73.006;2023-06-22T04:24:49;14.15;;;3.15;;
42866;SDS011;39461;40.948;73.006;2023-06-22T04:27:25;7.20;;;2.92;;
42866;SDS011;39461;40.948;73.006;2023-06-22T04:29:58;18.02;;;4.78;;
42866;SDS011;39461;40.948;73.006;2023-06-22T04:32:37;9.68;;;2.78;;
42866;SDS011;39461;40.948;73.006;2023-06-22T04:35:05;12.23;;;4.03;;
42866;SDS011;39461;40.948;73.006;2023-06-22T04:37:40;11.82;;;3.75;;
42866;SDS011;39461;40.948;73.006;2023-06-22T04:40:24;8.02;;;3.53;;
42866;SDS011;39461;40.948;73.006;2023-06-22T04:42:59;7.22;;;3.90;;
42866;SDS011;39461;40.948;73.006;2023-06-22T04:45:36;14.63;;;5.30;;
42866;SDS011;39461;40.948;73.006;2023-06-22T04:48:11;12.40;;;5.10;;
42866;SDS011;39461;40.948;73.006;2023-06-22T04:50:45;12.80;;;5.25;;
42866;SDS011;39461;40.948;73.006;2023-06-22T04:53:20;8.45;;;4.10;;
42866;SDS011;39461;40.948;73.006;2023-06-22T04:55:55;7.45;;;3.90;;
42866;SDS011;39461;40.948;73.006;2023-06-22T04:58:28;11.05;;;4.22;;
42866;SDS011;39461;40.948;73.006;2023-06-22T05:01:04;10.00;;;5.13;;
42866;SDS011;39461;40.948;73.006;2023-06-22T05:03:39;11.20;;;4.00;;
42866;SDS011;39461;40.948;73.006;2023-06-22T05:06:13;10.45;;;3.88;;
42866;SDS011;39461;40.948;73.006;2023-06-22T05:08:46;18.10;;;4.88;;
42866;SDS011;39461;40.948;73.006;2023-06-22T05:11:26;11.85;;;5.40;;
42866;SDS011;39461;40.948;73.006;2023-06-22T05:13:53;14.05;;;5.50;;
42866;SDS011;39461;40.948;73.006;2023-06-22T05:16:26;15.02;;;6.50;;
42866;SDS011;39461;40.948;73.006;2023-06-22T05:18:59;16.50;;;6.75;;
42866;SDS011;39461;40.948;73.006;2023-06-22T05:21:35;10.57;;;4.93;;
42866;SDS011;39461;40.948;73.006;2023-06-22T05:24:10;11.10;;;5.18;;
42866;SDS011;39461;40.948;73.006;2023-06-22T05:26:43;11.88;;;5.60;;
42866;SDS011;39461;40.948;73.006;2023-06-22T05:29:22;14.00;;;5.95;;
42866;SDS011;39461;40.948;73.006;2023-06-22T05:31:56;13.25;;;5.22;;
42866;SDS011;39461;40.948;73.006;2023-06-22T05:34:23;21.55;;;6.60;;
42866;SDS011;39461;40.948;73.006;2023-06-22T05:36:56;17.98;;;5.32;;
42866;SDS011;39461;40.948;73.006;2023-06-22T05:39:32;11.27;;;4.70;;
42866;SDS011;39461;40.948;73.006;2023-06-22T05:42:11;26.13;;;6.53;;
42866;SDS011;39461;40.948;73.006;2023-06-22T05:44:45;10.90;;;4.72;;
42866;SDS011;39461;40.948;73.006;2023-06-22T05:47:21;13.18;;;5.63;;
42866;SDS011;39461;40.948;73.006;2023-06-22T05:49:55;11.63;;;4.82;;
42866;SDS011;39461;40.948;73.006;2023-06-22T05:52:30;10.00;;;5.13;;
42866;SDS011;39461;40.948;73.006;2023-06-22T05:55:03;9.68;;;5.50;;
42866;SDS011;39461;40.948;73.006;2023-06-22T05:57:37;15.73;;;5.38;;
42866;SDS011;39461;40.948;73.006;2023-06-22T06:00:10;20.25;;;6.28;;
42866;SDS011;39461;40.948;73.006;2023-06-22T06:02:44;34.53;;;18.15;;
42866;SDS011;39461;40.948;73.006;2023-06-22T06:05:19;21.15;;;9.63;;
42866;SDS011;39461;40.948;73.006;2023-06-22T06:07:52;17.17;;;7.85;;
42866;SDS011;39461;40.948;73.006;2023-06-22T06:10:27;12.10;;;5.80;;
42866;SDS011;39461;40.948;73.006;2023-06-22T06:13:02;14.45;;;5.80;;
42866;SDS011;39461;40.948;73.006;2023-06-22T06:15:38;14.40;;;5.38;;
42866;SDS011;39461;40.948;73.006;2023-06-22T06:18:15;18.02;;;6.78;;
42866;SDS011;39461;40.948;73.006;2023-06-22T06:20:50;17.35;;;5.18;;
42866;SDS011;39461;40.948;73.006;2023-06-22T06:23:25;16.20;;;6.78;;
42866;SDS011;39461;40.948;73.006;2023-06-22T06:25:58;19.98;;;7.80;;
42866;SDS011;39461;40.948;73.006;2023-06-22T06:28:31;16.55;;;6.13;;
42866;SDS011;39461;40.948;73.006;2023-06-22T06:31:04;17.27;;;6.47;;
42866;SDS011;39461;40.948;73.006;2023-06-22T06:33:41;16.00;;;6.15;;
42866;SDS011;39461;40.948;73.006;2023-06-22T06:36:16;18.83;;;6.32;;
42866;SDS011;39461;40.948;73.006;2023-06-22T06:38:51;17.85;;;6.32;;
42866;SDS011;39461;40.948;73.006;2023-06-22T06:41:23;17.35;;;6.13;;
42866;SDS011;39461;40.948;73.006;2023-06-22T06:43:59;20.45;;;6.70;;
42866;SDS011;39461;40.948;73.006;2023-06-22T06:46:32;11.25;;;5.28;;
42866;SDS011;39461;40.948;73.006;2023-06-22T06:48:59;14.90;;;7.10;;
42866;SDS011;39461;40.948;73.006;2023-06-22T06:51:28;21.98;;;7.10;;
42866;SDS011;39461;40.948;73.006;2023-06-22T06:53:55;24.23;;;8.98;;
42866;SDS011;39461;40.948;73.006;2023-06-22T06:56:23;22.02;;;9.00;;
42866;SDS011;39461;40.948;73.006;2023-06-22T06:58:59;26.27;;;11.75;;
42866;SDS011;39461;40.948;73.006;2023-06-22T07:01:34;30.75;;;13.30;;
42866;SDS011;39461;40.948;73.006;2023-06-22T07:04:09;23.08;;;10.43;;
42866;SDS011;39461;40.948;73.006;2023-06-22T07:06:38;24.45;;;11.25;;
42866;SDS011;39461;40.948;73.006;2023-06-22T07:09:05;25.48;;;11.32;;
42866;SDS011;39461;40.948;73.006;2023-06-22T07:11:40;19.15;;;9.68;;
42866;SDS011;39461;40.948;73.006;2023-06-22T07:14:15;19.42;;;9.80;;
42866;SDS011;39461;40.948;73.006;2023-06-22T07:16:42;16.08;;;8.43;;
42866;SDS011;39461;40.948;73.006;2023-06-22T07:19:11;23.08;;;9.07;;
42866;SDS011;39461;40.948;73.006;2023-06-22T07:21:46;12.90;;;6.60;;
42866;SDS011;39461;40.948;73.006;2023-06-22T07:24:21;16.27;;;6.90;;
42866;SDS011;39461;40.948;73.006;2023-06-22T07:26:55;18.27;;;6.65;;
42866;SDS011;39461;40.948;73.006;2023-06-22T07:29:23;10.02;;;5.18;;
42866;SDS011;39461;40.948;73.006;2023-06-22T07:31:52;12.07;;;5.22;;
42866;SDS011;39461;40.948;73.006;2023-06-22T07:34:26;16.48;;;5.50;;
42866;SDS011;39461;40.948;73.006;2023-06-22T07:37:01;14.57;;;5.55;;
42866;SDS011;39461;40.948;73.006;2023-06-22T07:39:36;13.20;;;4.78;;
42866;SDS011;39461;40.948;73.006;2023-06-22T07:42:16;18.23;;;5.07;;
42866;SDS011;39461;40.948;73.006;2023-06-22T07:44:50;13.32;;;5.05;;
42866;SDS011;39461;40.948;73.006;2023-06-22T07:47:23;10.02;;;4.85;;
42866;SDS011;39461;40.948;73.006;2023-06-22T07:50:00;19.63;;;5.28;;
42866;SDS011;39461;40.948;73.006;2023-06-22T07:52:35;12.63;;;5.30;;
42866;SDS011;39461;40.948;73.006;2023-06-22T07:55:08;16.52;;;4.93;;
42866;SDS011;39461;40.948;73.006;2023-06-22T08:00:42;16.15;;;5.43;;
42866;SDS011;39461;40.948;73.006;2023-06-22T08:03:17;15.48;;;5.30;;
42866;SDS011;39461;40.948;73.006;2023-06-22T08:05:56;11.15;;;4.72;;
42866;SDS011;39461;40.948;73.006;2023-06-22T08:08:23;15.05;;;4.68;;
42866;SDS011;39461;40.948;73.006;2023-06-22T08:10:57;12.93;;;5.07;;
42866;SDS011;39461;40.948;73.006;2023-06-22T08:13:31;12.52;;;4.00;;
42866;SDS011;39461;40.948;73.006;2023-06-22T08:16:04;16.95;;;5.75;;
42866;SDS011;39461;40.948;73.006;2023-06-22T08:18:33;14.55;;;5.55;;
42866;SDS011;39461;40.948;73.006;2023-06-22T08:21:02;21.48;;;6.70;;
42866;SDS011;39461;40.948;73.006;2023-06-22T08:23:35;15.32;;;5.72;;
42866;SDS011;39461;40.948;73.006;2023-06-22T08:26:10;25.50;;;8.90;;
42866;SDS011;39461;40.948;73.006;2023-06-22T08:28:43;18.83;;;8.93;;
42866;SDS011;39461;40.948;73.006;2023-06-22T08:31:18;18.63;;;8.85;;
42866;SDS011;39461;40.948;73.006;2023-06-22T08:33:53;26.33;;;9.93;;
42866;SDS011;39461;40.948;73.006;2023-06-22T08:36:28;20.17;;;9.80;;
42866;SDS011;39461;40.948;73.006;2023-06-22T08:39:04;27.13;;;11.73;;
42866;SDS011;39461;40.948;73.006;2023-06-22T08:41:38;74.32;;;63.22;;
42866;SDS011;39461;40.948;73.006;2023-06-22T08:44:17;36.90;;;21.42;;
42866;SDS011;39461;40.948;73.006;2023-06-22T08:46:50;28.67;;;9.88;;
42866;SDS011;39461;40.948;73.006;2023-06-22T08:49:17;34.33;;;24.20;;
42866;SDS011;39461;40.948;73.006;2023-06-22T08:51:50;23.13;;;10.10;;
42866;SDS011;39461;40.948;73.006;2023-06-22T08:54:25;23.48;;;9.40;;
42866;SDS011;39461;40.948;73.006;2023-06-22T08:57:03;21.45;;;9.40;;
42866;SDS011;39461;40.948;73.006;2023-06-22T08:59:41;20.90;;;9.10;;
42866;SDS011;39461;40.948;73.006;2023-06-22T09:02:10;21.40;;;9.75;;
42866;SDS011;39461;40.948;73.006;2023-06-22T09:04:48;21.58;;;9.63;;
42866;SDS011;39461;40.948;73.006;2023-06-22T09:07:29;27.90;;;11.48;;
42866;SDS011;39461;40.948;73.006;2023-06-22T09:10:02;28.27;;;10.63;;
42866;SDS011;39461;40.948;73.006;2023-06-22T09:12:40;29.10;;;11.27;;
42866;SDS011;39461;40.948;73.006;2023-06-22T09:15:10;24.60;;;10.27;;
42866;SDS011;39461;40.948;73.006;2023-06-22T09:17:45;21.25;;;10.45;;
42866;SDS011;39461;40.948;73.006;2023-06-22T09:20:20;25.27;;;10.13;;
42866;SDS011;39461;40.948;73.006;2023-06-22T09:22:54;27.38;;;10.18;;
42866;SDS011;39461;40.948;73.006;2023-06-22T09:25:27;25.13;;;10.73;;
42866;SDS011;39461;40.948;73.006;2023-06-22T09:28:02;18.33;;;9.40;;
42866;SDS011;39461;40.948;73.006;2023-06-22T09:30:37;25.55;;;9.95;;
42866;SDS011;39461;40.948;73.006;2023-06-22T09:33:10;26.05;;;9.80;;
42866;SDS011;39461;40.948;73.006;2023-06-22T09:35:37;25.20;;;9.32;;
42866;SDS011;39461;40.948;73.006;2023-06-22T09:38:12;28.90;;;11.52;;
42866;SDS011;39461;40.948;73.006;2023-06-22T09:40:45;22.08;;;8.45;;
42866;SDS011;39461;40.948;73.006;2023-06-22T09:43:20;26.67;;;9.30;;
42866;SDS011;39461;40.948;73.006;2023-06-22T09:45:53;18.67;;;8.40;;
42866;SDS011;39461;40.948;73.006;2023-06-22T09:48:26;19.25;;;8.52;;
42866;SDS011;39461;40.948;73.006;2023-06-22T09:51:03;19.52;;;7.47;;
42866;SDS011;39461;40.948;73.006;2023-06-22T09:53:38;18.33;;;7.22;;
42866;SDS011;39461;40.948;73.006;2023-06-22T09:56:13;19.50;;;7.85;;
42866;SDS011;39461;40.948;73.006;2023-06-22T09:58:48;27.30;;;9.02;;
42866;SDS011;39461;40.948;73.006;2023-06-22T10:01:24;35.97;;;9.50;;
42866;SDS011;39461;40.948;73.006;2023-06-22T10:03:57;21.75;;;12.70;;
42866;SDS011;39461;40.948;73.006;2023-06-22T10:06:30;30.20;;;11.25;;
42866;SDS011;39461;40.948;73.006;2023-06-22T10:09:03;21.63;;;7.25;;
42866;SDS011;39461;40.948;73.006;2023-06-22T10:11:38;22.33;;;7.88;;
42866;SDS011;39461;40.948;73.006;2023-06-22T10:17:11;18.15;;;7.75;;
42866;SDS011;39461;40.948;73.006;2023-06-22T10:19:46;24.90;;;7.20;;
42866;SDS011;39461;40.948;73.006;2023-06-22T10:22:22;17.92;;;7.05;;
42866;SDS011;39461;40.948;73.006;2023-06-22T10:24:55;23.52;;;7.60;;
42866;SDS011;39461;40.948;73.006;2023-06-22T10:27:30;19.60;;;8.07;;
42866;SDS011;39461;40.948;73.006;2023-06-22T10:30:03;21.08;;;7.15;;
42866;SDS011;39461;40.948;73.006;2023-06-22T10:32:39;16.90;;;6.47;;
42866;SDS011;39461;40.948;73.006;2023-06-22T10:35:06;25.38;;;7.45;;
42866;SDS011;39461;40.948;73.006;2023-06-22T10:37:40;29.63;;;8.98;;
42866;SDS011;39461;40.948;73.006;2023-06-22T10:40:15;26.05;;;7.13;;
42866;SDS011;39461;40.948;73.006;2023-06-22T10:42:56;18.58;;;5.85;;
42866;SDS011;39461;40.948;73.006;2023-06-22T10:45:31;21.20;;;6.90;;
42866;SDS011;39461;40.948;73.006;2023-06-22T10:48:04;31.27;;;7.13;;
42866;SDS011;39461;40.948;73.006;2023-06-22T10:50:31;13.25;;;6.15;;
42866;SDS011;39461;40.948;73.006;2023-06-22T10:53:06;17.70;;;7.20;;
42866;SDS011;39461;40.948;73.006;2023-06-22T10:55:45;20.75;;;6.53;;
42866;SDS011;39461;40.948;73.006;2023-06-22T10:58:20;21.95;;;8.18;;
42866;SDS011;39461;40.948;73.006;2023-06-22T11:00:53;19.40;;;6.70;;
42866;SDS011;39461;40.948;73.006;2023-06-22T11:03:28;13.50;;;7.40;;
42866;SDS011;39461;40.948;73.006;2023-06-22T11:06:00;18.50;;;6.05;;
42866;SDS011;39461;40.948;73.006;2023-06-22T11:08:39;14.32;;;6.15;;
42866;SDS011;39461;40.948;73.006;2023-06-22T11:11:14;19.55;;;7.07;;
42866;SDS011;39461;40.948;73.006;2023-06-22T11:13:54;15.57;;;7.15;;
42866;SDS011;39461;40.948;73.006;2023-06-22T11:16:29;29.42;;;8.05;;
42866;SDS011;39461;40.948;73.006;2023-06-22T11:19:02;17.38;;;6.82;;
42866;SDS011;39461;40.948;73.006;2023-06-22T11:24:36;20.73;;;7.82;;
42866;SDS011;39461;40.948;73.006;2023-06-22T11:27:09;30.08;;;10.68;;
42866;SDS011;39461;40.948;73.006;2023-06-22T11:29:48;19.27;;;6.57;;
42866;SDS011;39461;40.948;73.006;2023-06-22T11:32:22;24.00;;;7.78;;
42866;SDS011;39461;40.948;73.006;2023-06-22T11:34:57;23.25;;;7.50;;
42866;SDS011;39461;40.948;73.006;2023-06-22T11:37:30;30.98;;;9.68;;
42866;SDS011;39461;40.948;73.006;2023-06-22T11:40:08;29.33;;;8.75;;
42866;SDS011;39461;40.948;73.006;2023-06-22T11:42:43;23.10;;;9.57;;
42866;SDS011;39461;40.948;73.006;2023-06-22T11:45:17;15.52;;;7.95;;
42866;SDS011;39461;40.948;73.006;2023-06-22T11:47:52;18.35;;;8.25;;
42866;SDS011;39461;40.948;73.006;2023-06-22T11:50:25;20.00;;;9.73;;
42866;SDS011;39461;40.948;73.006;2023-06-22T11:53:00;34.33;;;10.68;;
42866;SDS011;39461;40.948;73.006;2023-06-22T11:55:29;23.98;;;11.05;;
42866;SDS011;39461;40.948;73.006;2023-06-22T11:58:02;24.42;;;10.55;;
42866;SDS011;39461;40.948;73.006;2023-06-22T12:00:39;23.98;;;9.77;;
42866;SDS011;39461;40.948;73.006;2023-06-22T12:03:13;18.20;;;9.68;;
42866;SDS011;39461;40.948;73.006;2023-06-22T12:05:49;19.08;;;8.25;;
42866;SDS011;39461;40.948;73.006;2023-06-22T12:08:23;27.80;;;10.48;;
42866;SDS011;39461;40.948;73.006;2023-06-22T12:10:56;25.92;;;9.25;;
42866;SDS011;39461;40.948;73.006;2023-06-22T12:13:29;23.90;;;9.90;;
42866;SDS011;39461;40.948;73.006;2023-06-22T12:16:04;25.98;;;10.25;;
42866;SDS011;39461;40.948;73.006;2023-06-22T12:18:40;29.33;;;10.30;;
42866;SDS011;39461;40.948;73.006;2023-06-22T12:21:15;22.70;;;9.02;;
42866;SDS011;39461;40.948;73.006;2023-06-22T12:23:48;22.08;;;8.90;;
42866;SDS011;39461;40.948;73.006;2023-06-22T12:26:23;22.85;;;9.60;;
42866;SDS011;39461;40.948;73.006;2023-06-22T12:28:58;24.35;;;10.43;;
42866;SDS011;39461;40.948;73.006;2023-06-22T12:31:33;27.88;;;9.52;;
42866;SDS011;39461;40.948;73.006;2023-06-22T12:34:06;33.60;;;9.90;;
42866;SDS011;39461;40.948;73.006;2023-06-22T12:36:41;27.70;;;10.10;;
42866;SDS011;39461;40.948;73.006;2023-06-22T12:39:16;19.80;;;9.57;;
42866;SDS011;39461;40.948;73.006;2023-06-22T12:41:51;22.80;;;8.48;;
42866;SDS011;39461;40.948;73.006;2023-06-22T12:44:28;20.48;;;9.02;;
42866;SDS011;39461;40.948;73.006;2023-06-22T12:46:57;23.48;;;10.30;;
42866;SDS011;39461;40.948;73.006;2023-06-22T12:49:26;23.50;;;10.32;;
42866;SDS011;39461;40.948;73.006;2023-06-22T12:55:02;23.33;;;9.65;;
42866;SDS011;39461;40.948;73.006;2023-06-22T12:57:36;51.40;;;13.32;;
42866;SDS011;39461;40.948;73.006;2023-06-22T13:00:09;37.15;;;12.57;;
42866;SDS011;39461;40.948;73.006;2023-06-22T13:02:45;23.85;;;10.52;;
42866;SDS011;39461;40.948;73.006;2023-06-22T13:05:20;24.15;;;9.80;;
42866;SDS011;39461;40.948;73.006;2023-06-22T13:07:55;27.75;;;10.57;;
42866;SDS011;39461;40.948;73.006;2023-06-22T13:10:30;21.55;;;9.48;;
42866;SDS011;39461;40.948;73.006;2023-06-22T13:13:05;20.35;;;9.25;;
42866;SDS011;39461;40.948;73.006;2023-06-22T13:15:40;25.95;;;10.60;;
42866;SDS011;39461;40.948;73.006;2023-06-22T13:18:15;20.38;;;9.57;;
42866;SDS011;39461;40.948;73.006;2023-06-22T13:20:48;23.90;;;10.52;;
42866;SDS011;39461;40.948;73.006;2023-06-22T13:23:25;31.05;;;10.98;;
42866;SDS011;39461;40.948;73.006;2023-06-22T13:26:00;26.85;;;11.85;;
42866;SDS011;39461;40.948;73.006;2023-06-22T13:28:37;26.13;;;11.35;;
42866;SDS011;39461;40.948;73.006;2023-06-22T13:31:12;31.92;;;10.82;;
42866;SDS011;39461;40.948;73.006;2023-06-22T13:33:45;25.30;;;11.68;;
42866;SDS011;39461;40.948;73.006;2023-06-22T13:36:16;21.38;;;10.85;;
42866;SDS011;39461;40.948;73.006;2023-06-22T13:38:50;33.20;;;11.70;;
42866;SDS011;39461;40.948;73.006;2023-06-22T13:41:23;29.65;;;11.05;;
42866;SDS011;39461;40.948;73.006;2023-06-22T13:43:58;47.05;;;15.90;;
42866;SDS011;39461;40.948;73.006;2023-06-22T13:46:33;49.08;;;21.05;;
42866;SDS011;39461;40.948;73.006;2023-06-22T13:49:06;40.85;;;20.40;;
42866;SDS011;39461;40.948;73.006;2023-06-22T13:51:39;46.60;;;22.77;;
42866;SDS011;39461;40.948;73.006;2023-06-22T13:54:12;33.67;;;18.05;;
42866;SDS011;39461;40.948;73.006;2023-06-22T13:57:10;38.55;;;17.40;;
42866;SDS011;39461;40.948;73.006;2023-06-22T13:59:45;33.75;;;17.27;;
42866;SDS011;39461;40.948;73.006;2023-06-22T14:02:18;38.70;;;19.15;;
42866;SDS011;39461;40.948;73.006;2023-06-22T14:04:51;67.03;;;26.35;;
42866;SDS011;39461;40.948;73.006;2023-06-22T14:07:26;47.70;;;22.95;;
42866;SDS011;39461;40.948;73.006;2023-06-22T14:10:09;45.13;;;23.67;;
42866;SDS011;39461;40.948;73.006;2023-06-22T14:12:36;36.63;;;18.25;;
42866;SDS011;39461;40.948;73.006;2023-06-22T14:15:05;42.83;;;18.20;;
42866;SDS011;39461;40.948;73.006;2023-06-22T14:17:40;33.83;;;16.70;;
42866;SDS011;39461;40.948;73.006;2023-06-22T14:20:13;35.83;;;18.15;;
42866;SDS011;39461;40.948;73.006;2023-06-22T14:22:46;33.55;;;14.48;;
42866;SDS011;39461;40.948;73.006;2023-06-22T14:25:19;29.05;;;14.05;;
42866;SDS011;39461;40.948;73.006;2023-06-22T14:27:53;33.08;;;14.45;;
42866;SDS011;39461;40.948;73.006;2023-06-22T14:30:26;34.47;;;15.02;;
42866;SDS011;39461;40.948;73.006;2023-06-22T14:33:05;37.00;;;16.23;;
42866;SDS011;39461;40.948;73.006;2023-06-22T14:35:34;32.70;;;14.90;;
42866;SDS011;39461;40.948;73.006;2023-06-22T14:38:07;26.52;;;13.68;;
42866;SDS011;39461;40.948;73.006;2023-06-22T14:40:44;72.05;;;16.58;;
42866;SDS011;39461;40.948;73.006;2023-06-22T14:43:16;42.95;;;14.77;;
42866;SDS011;39461;40.948;73.006;2023-06-22T14:45:51;32.53;;;14.13;;
42866;SDS011;39461;40.948;73.006;2023-06-22T14:48:26;47.70;;;16.52;;
42866;SDS011;39461;40.948;73.006;2023-06-22T14:51:00;39.60;;;15.60;;
42866;SDS011;39461;40.948;73.006;2023-06-22T14:53:43;29.25;;;14.73;;
42866;SDS011;39461;40.948;73.006;2023-06-22T14:56:10;37.92;;;16.27;;
42866;SDS011;39461;40.948;73.006;2023-06-22T14:58:46;31.42;;;15.27;;
42866;SDS011;39461;40.948;73.006;2023-06-22T15:01:22;53.50;;;18.75;;
42866;SDS011;39461;40.948;73.006;2023-06-22T15:03:57;53.88;;;26.08;;
42866;SDS011;39461;40.948;73.006;2023-06-22T15:06:30;56.47;;;23.10;;
42866;SDS011;39461;40.948;73.006;2023-06-22T15:09:07;42.05;;;21.38;;
42866;SDS011;39461;40.948;73.006;2023-06-22T15:11:42;43.15;;;17.88;;
42866;SDS011;39461;40.948;73.006;2023-06-22T15:14:15;33.28;;;16.10;;
42866;SDS011;39461;40.948;73.006;2023-06-22T15:16:50;31.75;;;17.63;;
42866;SDS011;39461;40.948;73.006;2023-06-22T15:19:23;39.75;;;18.08;;